Nearby METAR Reports

 

KIKK - Kankakee, Illinois, USA
Distance from station: S 7mi, 12km
Updated: Sat, 18-Aug-2018 6:55am CDT
Mist, Overcast
Mist, Overcast
 Wind from calm
Wind: Calm
Temperature: 68°F , 20°C
Dew Point: 68°F , 20°C
Humidity: 100%
Barometer: 30.03 inHg , 1016.9 hPa
Summary: Mist
Clouds: Overcast
Visibility: 1 1/2 miles , 2.4 km
Cloud details: Overcast 1300 ft
2018/08/18 11:55 KIKK 181155Z AUTO 00000KT 1 1/2SM BR OVC013 20/20 A3003 RMK AO2 70001 T02020199 10203 20180
KIGQ - Chicago/Lansing, Illinois, USA
Distance from station: NNE 29mi, 47km
Updated: Sat, 18-Aug-2018 6:55am CDT
Mist, Mostly cloudy
Mist, Mostly cloudy
 Wind from calm
Wind: Calm
Temperature: 66°F , 19°C
Dew Point: 66°F , 19°C
Humidity: 100%
Barometer: 30.01 inHg , 1016.3 hPa
Summary: Mist
Clouds: Mostly cloudy
Visibility: 1 3/4 miles , 2.8 km
Cloud details: Mostly cloudy 1500 ft
Mostly cloudy 2200 ft
2018/08/18 11:55 KIGQ 181155Z AUTO 00000KT 1 3/4SM BR BKN015 BKN022 19/19 A3001 RMK AO2 T01880188 10205 20180
 
KJOT - Joliet, Illinois, USA
Distance from station: NW 30mi, 48km
Updated: Sat, 18-Aug-2018 6:55am CDT
Mist, Overcast
Mist, Overcast
 Wind from N
Wind: N 8 mph , 13 km/h
Temperature: 72°F , 22°C
Dew Point: 72°F , 22°C
Humidity: 100%
Barometer: 30.03 inHg , 1016.9 hPa
Summary: Mist
Clouds: Overcast
Visibility: 1 1/4 miles , 2 km
Cloud details: Overcast 400 ft
2018/08/18 11:55 KJOT 181155Z AUTO 36007KT 1 1/4SM BR OVC004 22/22 A3003 RMK AO2 70002 T02170217 10218 20200
KLOT - Romeoville/Chi, Illinois, USA
Distance from station: NNW 34mi, 55km
Updated: Sat, 18-Aug-2018 6:55am CDT
Mist, Overcast
Mist, Overcast
 Wind from N
Wind: N 6 mph , 9 km/h
Temperature: 70°F , 21°C
Dew Point: 70°F , 21°C
Humidity: 100%
Barometer: 30.04 inHg , 1017.3 hPa
Summary: Mist
Clouds: Overcast
Visibility: 1 mile , 2 km
Cloud details: Overcast 300 ft
2018/08/18 11:55 KLOT 181155Z AUTO 36005KT 1SM BR OVC003 21/21 A3004 RMK AO2 70001 T02080208 10208 20190
 
KC09 - Morris-Washburn, Illinois, USA
Distance from station: WNW 36mi, 58km
Updated: Sat, 18-Aug-2018 6:55am CDT
Mist, Mostly cloudy
Mist, Mostly cloudy
 Wind from calm
Wind: Calm
Temperature: 68°F , 20°C
Dew Point: 66°F , 19°C
Humidity: 94%
Barometer: 30.02 inHg , 1016.6 hPa
Summary: Mist
Clouds: Mostly cloudy
Visibility: 1 1/4 miles , 2 km
Cloud details: Mostly cloudy 300 ft
2018/08/18 11:55 KC09 181155Z AUTO 00000KT 1 1/4SM BR BKN003 20/19 A3002 RMK AO2 70002 T01950192 10200 20185
KRZL - Rensselaer, Indiana, USA
Distance from station: ESE 37mi, 59km
Updated: Sat, 18-Aug-2018 6:55am CDT
Haze, Overcast
Haze, Overcast
 Wind from N
Wind: N 3 mph , 6 km/h
Temperature: 66°F , 19°C
Dew Point: 61°F , 16°C
Humidity: 83%
Barometer: 30.01 inHg , 1016.3 hPa
Summary: Haze
Clouds: Overcast
Visibility: 1/2 mile , 0.8 km
Cloud details: Overcast 200 ft
2018/08/18 11:55 KRZL 181155Z AUTO 35003KT 1/2SM HZ OVC002 19/16 A3001 RMK AO2
 
KGYY - Gary Regional, Indiana, USA
Distance from station: NE 37mi, 60km
Updated: Sat, 18-Aug-2018 6:45am CDT
Mostly cloudy
Mostly cloudy
 Wind from varies
Wind: varies 7 mph , 11 km/h
Temperature: 75°F , 24°C
Dew Point: 72°F , 22°C
Humidity: 89%
Barometer: 30.02 inHg , 1016.6 hPa
Clouds: Mostly cloudy
Visibility: 10 miles , 16 km
Cloud details: Partly cloudy 1300 ft
Mostly cloudy 25000 ft
2018/08/18 11:45 KGYY 181145Z VRB06KT 10SM SCT013 BKN250 24/22 A3002
KMDW - Chicago, Illinois, USA
Distance from station: N 42mi, 68km
Updated: Sat, 18-Aug-2018 6:53am CDT
Mist, Partly cloudy
Mist, Partly cloudy
 Wind from N
Wind: N 8 mph , 13 km/h
Temperature: 73°F , 23°C
Dew Point: 72°F , 22°C
Humidity: 94%
Barometer: 30.01 inHg , 1016.3 hPa
Summary: Mist
Clouds: Partly cloudy
Visibility: 5 miles , 8 km
Cloud details: Partly cloudy 400 ft
Partly cloudy 1800 ft
Partly cloudy 25000 ft
2018/08/18 11:53 KMDW 181153Z 35007KT 5SM BR SCT004 SCT018 SCT250 23/22 A3001 RMK AO2 SLP154 70006 T02280217 10233 20222 53006
 
KPNT - Pontiac, Illinois, USA
Distance from station: WSW 46mi, 74km
Updated: Sat, 18-Aug-2018 6:55am CDT
Mist, Overcast
Mist, Overcast
 Wind from calm
Wind: Calm
Temperature: 68°F , 20°C
Dew Point: 66°F , 19°C
Humidity: 94%
Barometer: 30.03 inHg , 1016.9 hPa
Summary: Mist
Clouds: Overcast
Visibility: 1 mile , 2 km
Cloud details: Overcast 700 ft
2018/08/18 11:55 KPNT 181155Z AUTO 00000KT 1SM BR VV007 20/19 A3003 RMK AO2 60001 7//// T01950192 10215 20192
KVPZ - Valparaiso, Indiana, USA
Distance from station: ENE 47mi, 75km
Updated: Sat, 18-Aug-2018 6:56am CDT
Haze, Clear
Haze, Clear
 Wind from calm
Wind: Calm
Temperature: 70°F , 21°C
Dew Point: 64°F , 18°C
Humidity: 83%
Barometer: 30.02 inHg , 1016.6 hPa
Summary: Haze
Clouds: Clear
Visibility: 2 miles , 3 km
2018/08/18 11:56 KVPZ 181156Z AUTO 00000KT 2SM HZ CLR 21/18 A3002 RMK AO2 SLP159 70006 T02110183 10217 20194 53006